Time;durP1;ratioP1;P1;durP2;ratioP2;P2;SDS_P1;SDS_P2;PMS_P1;PMS_P2;Temp;Humidity;BMP_temperature;BMP_pressure;BME280_temperature;BME280_humidity;BME280_pressure;Samples;Min_cycle;Max_cycle;Signal;HPM_P1;HPM_P2
2022/12/16 00:01:55;;;;;;;20.65;10.13;;;18.20;53.60;;;;;;4907293;29;20040;-66
2022/12/16 00:04:21;;;;;;;25.50;10.35;;;18.20;53.60;;;;;;4911866;29;20055;-67
2022/12/16 00:06:46;;;;;;;25.23;10.02;;;18.20;53.60;;;;;;4906380;29;20127;-66
2022/12/16 00:09:12;;;;;;;24.65;9.32;;;18.20;53.60;;;;;;4894451;29;20052;-66
2022/12/16 00:11:38;;;;;;;21.20;9.82;;;18.30;53.60;;;;;;4911211;29;20043;-67
2022/12/16 00:14:03;;;;;;;21.42;9.40;;;18.20;53.50;;;;;;4907866;29;20067;-66
2022/12/16 00:16:29;;;;;;;21.83;9.60;;;18.20;53.50;;;;;;4910777;29;20058;-67
2022/12/16 00:18:54;;;;;;;22.40;9.52;;;18.20;53.40;;;;;;4908259;29;20044;-66
2022/12/16 00:21:20;;;;;;;20.63;9.35;;;18.30;53.50;;;;;;4909390;29;20052;-66
2022/12/16 00:23:46;;;;;;;17.88;9.20;;;18.30;53.40;;;;;;4909590;29;20044;-67
2022/12/16 00:26:12;;;;;;;17.42;8.40;;;18.30;53.40;;;;;;4908065;29;20046;-67
2022/12/16 00:28:39;;;;;;;18.05;9.15;;;18.30;53.40;;;;;;4925476;29;21144;-67
2022/12/16 00:31:07;;;;;;;17.95;8.75;;;18.20;53.30;;;;;;4906555;29;20040;-67
2022/12/16 00:33:33;;;;;;;19.40;8.90;;;18.20;53.30;;;;;;4913190;29;20059;-67
2022/12/16 00:35:59;;;;;;;20.23;8.75;;;18.30;53.30;;;;;;4922579;29;20549;-66
2022/12/16 00:38:25;;;;;;;16.80;8.50;;;18.20;53.30;;;;;;4909068;29;20052;-67
2022/12/16 00:40:54;;;;;;;14.15;7.47;;;18.20;53.20;;;;;;4910006;29;20176;-66
2022/12/16 00:43:20;;;;;;;17.70;8.90;;;18.30;53.20;;;;;;4908771;29;20567;-67
2022/12/16 00:45:46;;;;;;;20.30;8.55;;;18.30;53.30;;;;;;4910472;29;20080;-67
2022/12/16 00:48:11;;;;;;;16.80;8.57;;;18.20;53.10;;;;;;4908763;29;20472;-66
2022/12/16 00:50:37;;;;;;;14.05;7.65;;;18.30;53.20;;;;;;4909566;29;20048;-66
2022/12/16 00:53:04;;;;;;;15.85;8.63;;;18.30;53.10;;;;;;4909892;29;20594;-67
2022/12/16 00:55:30;;;;;;;16.33;8.25;;;18.30;53.20;;;;;;4912981;29;20484;-67
2022/12/16 00:57:55;;;;;;;16.52;8.63;;;18.30;53.10;;;;;;4889504;29;20047;-66
2022/12/16 01:00:22;;;;;;;15.98;7.80;;;18.30;53.10;;;;;;4924413;29;20040;-66
2022/12/16 01:02:49;;;;;;;19.10;8.20;;;18.30;53.10;;;;;;4909829;29;20036;-67
2022/12/16 01:05:18;;;;;;;13.55;7.43;;;18.30;53.00;;;;;;4907182;29;20048;-67
2022/12/16 01:07:43;;;;;;;;;;;18.30;53.00;;;;;;4910720;29;20040;-67
2022/12/16 01:10:10;;;;;;;14.82;6.93;;;18.30;52.90;;;;;;4911365;29;20378;-66
2022/12/16 01:12:36;;;;;;;15.68;7.15;;;18.30;53.00;;;;;;4908527;29;20480;-67
2022/12/16 01:15:05;;;;;;;14.52;7.40;;;18.30;52.90;;;;;;4907389;29;20465;-67
2022/12/16 01:17:31;;;;;;;14.45;7.10;;;18.30;53.00;;;;;;4888070;29;20500;-67
2022/12/16 01:19:57;;;;;;;14.52;7.18;;;18.30;52.90;;;;;;4902092;29;20512;-66
2022/12/16 01:22:29;;;;;;;13.77;7.10;;;18.30;52.90;;;;;;4905344;29;20051;-67
2022/12/16 01:24:54;;;;;;;14.15;7.28;;;18.30;52.90;;;;;;4910595;29;20486;-67
2022/12/16 01:27:20;;;;;;;15.63;7.57;;;18.30;52.90;;;;;;4906111;29;20055;-66
2022/12/16 01:29:45;;;;;;;12.00;6.50;;;18.30;52.90;;;;;;4921607;29;20054;-67
2022/12/16 01:32:12;;;;;;;11.40;6.72;;;18.30;52.90;;;;;;4902375;29;20535;-67
2022/12/16 01:34:38;;;;;;;13.40;6.70;;;18.30;52.90;;;;;;4904742;29;20052;-67
2022/12/16 01:37:03;;;;;;;10.93;6.40;;;18.30;52.90;;;;;;4906253;29;20062;-67
2022/12/16 01:39:29;;;;;;;12.80;7.13;;;18.30;52.90;;;;;;4890215;29;20513;-67
2022/12/16 01:41:55;;;;;;;11.70;6.18;;;18.30;52.80;;;;;;4908461;29;20040;-67
2022/12/16 01:44:23;;;;;;;13.75;6.80;;;18.30;52.80;;;;;;4887930;29;20040;-66
2022/12/16 01:47:02;;;;;;;12.60;6.32;;;18.30;52.80;;;;;;4890692;29;20042;-66
2022/12/16 01:49:41;;;;;;;10.55;6.20;;;18.30;52.80;;;;;;4903634;29;20408;-66
2022/12/16 01:52:11;;;;;;;15.68;6.45;;;18.30;52.70;;;;;;4919099;29;20507;-67
2022/12/16 01:54:42;;;;;;;10.63;6.00;;;18.30;52.70;;;;;;4903227;29;20044;-66
2022/12/16 01:57:20;;;;;;;10.63;5.78;;;18.30;52.70;;;;;;4903600;29;20032;-67
2022/12/16 01:59:48;;;;;;;10.27;6.22;;;18.30;52.70;;;;;;4906183;29;20513;-67
2022/12/16 02:02:14;;;;;;;11.90;6.60;;;18.30;52.80;;;;;;4905388;29;20435;-66
2022/12/16 02:05:19;;;;;;;12.30;6.03;;;18.30;52.70;;;;;;4908022;29;20035;-66
2022/12/16 02:07:25;;;;;;;11.25;5.97;;;18.30;52.60;;;;;;4905921;29;20600;-66
2022/12/16 02:09:51;;;;;;;9.52;5.60;;;18.30;52.60;;;;;;4906946;29;20048;-67
2022/12/16 02:12:30;;;;;;;10.38;6.05;;;18.30;52.60;;;;;;4909733;29;20071;-66
2022/12/16 02:15:04;;;;;;;;;;;18.30;52.60;;;;;;4886410;29;20046;-67
2022/12/16 02:17:59;;;;;;;10.85;5.50;;;18.30;53.30;;;;;;4905159;29;19938;-67
2022/12/16 02:20:34;;;;;;;9.45;5.57;;;18.30;52.50;;;;;;4905246;29;20571;-67
2022/12/16 02:23:36;;;;;;;9.90;5.55;;;18.30;52.60;;;;;;4916761;29;20055;-66
2022/12/16 02:26:36;;;;;;;10.43;5.78;;;18.30;52.50;;;;;;4904826;29;20060;-66
2022/12/16 02:29:01;;;;;;;11.57;5.95;;;18.30;52.50;;;;;;4902997;29;20076;-67
2022/12/16 02:31:40;;;;;;;;;;;18.30;52.50;;;;;;4903460;29;20099;-67
2022/12/16 02:34:25;;;;;;;7.07;4.60;;;18.30;52.50;;;;;;4903663;29;20506;-66
2022/12/16 02:37:07;;;;;;;10.77;5.70;;;18.30;52.50;;;;;;4898509;29;20456;-66
2022/12/16 02:39:48;;;;;;;8.07;4.72;;;18.30;52.50;;;;;;4902218;29;20036;-66
2022/12/16 02:42:36;;;;;;;8.40;4.95;;;18.30;52.50;;;;;;4905897;29;20088;-66
2022/12/16 02:45:04;;;;;;;;;;;18.30;52.50;;;;;;4888110;29;20754;-66
2022/12/16 02:47:31;;;;;;;10.95;5.25;;;18.30;52.50;;;;;;4887949;29;19933;-66
2022/12/16 02:49:57;;;;;;;10.35;5.18;;;18.30;52.50;;;;;;4906406;29;20121;-67
2022/12/16 02:52:27;;;;;;;9.25;4.65;;;18.30;52.40;;;;;;4904117;29;20048;-67
2022/12/16 02:55:00;;;;;;;9.15;5.00;;;18.30;52.40;;;;;;4904921;29;20122;-66
2022/12/16 02:57:44;;;;;;;7.32;5.15;;;18.30;52.40;;;;;;4905145;29;20539;-67
2022/12/16 03:00:14;;;;;;;9.98;4.82;;;18.30;52.50;;;;;;4905672;29;20048;-67
2022/12/16 03:02:49;;;;;;;10.23;5.55;;;18.30;52.40;;;;;;4904941;29;20190;-66
2022/12/16 03:05:24;;;;;;;8.73;4.55;;;18.30;52.40;;;;;;4907036;29;20765;-66
2022/12/16 03:07:52;;;;;;;12.02;5.00;;;18.30;52.40;;;;;;4903999;29;20127;-67
2022/12/16 03:10:26;;;;;;;8.57;4.90;;;18.30;52.40;;;;;;4906118;29;20052;-66
2022/12/16 03:12:54;;;;;;;7.07;4.57;;;18.30;52.40;;;;;;4890980;29;20393;-66
2022/12/16 03:15:24;;;;;;;6.85;4.35;;;18.30;52.40;;;;;;4903990;29;20514;-66
2022/12/16 03:17:51;;;;;;;6.40;4.35;;;18.30;52.30;;;;;;4903658;29;20051;-66
2022/12/16 03:20:42;;;;;;;7.20;4.72;;;18.30;52.30;;;;;;4903033;29;20044;-67
2022/12/16 03:23:14;;;;;;;7.03;3.90;;;18.30;52.30;;;;;;4903182;29;20036;-67
2022/12/16 03:25:43;;;;;;;8.30;4.63;;;18.30;52.30;;;;;;4901158;29;20091;-66
2022/12/16 03:28:24;;;;;;;8.00;4.40;;;18.30;52.30;;;;;;4903108;29;20043;-67
2022/12/16 03:30:59;;;;;;;6.47;4.18;;;18.30;52.30;;;;;;4905323;29;20505;-67
2022/12/16 03:33:31;;;;;;;6.53;4.18;;;18.30;52.30;;;;;;4900850;29;20098;-67
2022/12/16 03:36:03;;;;;;;9.48;4.50;;;18.30;52.30;;;;;;4904719;29;20076;-66
2022/12/16 03:38:30;;;;;;;7.82;4.68;;;18.30;52.30;;;;;;4900987;29;20048;-67
2022/12/16 03:40:58;;;;;;;7.27;4.47;;;18.40;52.30;;;;;;4904507;29;20377;-67
2022/12/16 03:43:24;;;;;;;8.67;3.60;;;18.30;52.20;;;;;;4904007;29;20040;-66
2022/12/16 03:45:55;;;;;;;6.95;4.40;;;18.40;52.30;;;;;;4918145;29;20307;-66
2022/12/16 03:48:23;;;;;;;8.68;4.20;;;18.30;52.10;;;;;;4904115;29;20614;-67
2022/12/16 03:50:49;;;;;;;6.90;4.30;;;18.40;52.20;;;;;;4904225;29;20036;-66
2022/12/16 03:53:15;;;;;;;6.28;3.67;;;18.40;52.20;;;;;;4900200;29;20083;-67
2022/12/16 03:55:41;;;;;;;6.03;3.67;;;18.40;52.20;;;;;;4906407;29;20135;-67
2022/12/16 03:58:06;;;;;;;7.28;4.10;;;18.40;52.20;;;;;;4902962;29;20044;-67
2022/12/16 04:00:32;;;;;;;5.93;3.60;;;18.30;52.10;;;;;;4887568;29;20052;-67
2022/12/16 04:02:58;;;;;;;6.68;3.78;;;18.40;52.20;;;;;;4883817;29;20100;-67
2022/12/16 04:05:24;;;;;;;5.70;3.67;;;18.40;52.20;;;;;;4905938;29;20067;-66
2022/12/16 04:07:50;;;;;;;5.53;3.20;;;18.40;52.20;;;;;;4902075;29;20581;-66
2022/12/16 04:10:15;;;;;;;5.07;3.40;;;18.40;52.10;;;;;;4905700;29;20555;-67
2022/12/16 04:29:25;;;;;;;6.78;3.50;;;18.40;52.10;;;;;;4905093;29;20424;-66
2022/12/16 04:31:51;;;;;;;6.45;3.40;;;18.40;52.10;;;;;;4904158;29;20061;-67
2022/12/16 04:34:27;;;;;;;6.85;3.55;;;18.40;52.10;;;;;;4903002;29;20052;-66
